createdAt,value
2023-01-11T00:00:39.358Z,100266.28
2023-01-11T00:03:06.740Z,100264.06
2023-01-11T00:05:40.896Z,100270.72
2023-01-11T00:08:08.555Z,100259.53
2023-01-11T00:10:35.586Z,100263.56
2023-01-11T00:13:02.518Z,100257.41
2023-01-11T00:15:28.992Z,100251.13
2023-01-11T00:17:55.439Z,100244.84
2023-01-11T00:20:21.926Z,100233.81
2023-01-11T00:22:48.393Z,100223.94
2023-01-11T00:25:14.831Z,100225.47
2023-01-11T00:27:41.252Z,100221.81
2023-01-11T00:30:08.476Z,100225.88
2023-01-11T00:32:34.881Z,100218.63
2023-01-11T00:35:01.303Z,100221.25
2023-01-11T00:37:27.708Z,100214.44
2023-01-11T00:39:54.147Z,100217.59
2023-01-11T00:42:39.115Z,100211.25
2023-01-11T00:45:24.903Z,100212.06
2023-01-11T00:47:57.673Z,100202.16
2023-01-11T00:50:25.927Z,100210.88
2023-01-11T00:52:52.375Z,100208.13
2023-01-11T00:55:19.252Z,100206.16
2023-01-11T00:57:45.793Z,100209.78
2023-01-11T01:00:12.840Z,100200.56
2023-01-11T01:02:39.604Z,100207.97
2023-01-11T01:05:06.505Z,100203.78
2023-01-11T01:07:32.939Z,100196.91
2023-01-11T01:09:59.376Z,100205.50
2023-01-11T01:12:44.147Z,100200.25
2023-01-11T01:15:11.011Z,100198.19
2023-01-11T01:17:37.686Z,100203.03
2023-01-11T01:20:04.671Z,100195.72
2023-01-11T01:22:31.237Z,100194.63
2023-01-11T01:24:57.672Z,100201.91
2023-01-11T01:27:24.607Z,100202.44
2023-01-11T01:29:51.039Z,100198.00
2023-01-11T01:32:17.637Z,100200.50
2023-01-11T01:34:44.063Z,100201.94
2023-01-11T01:37:11.507Z,100189.66
2023-01-11T01:39:38.090Z,100200.94
2023-01-11T01:42:06.029Z,100193.03
2023-01-11T01:45:02.493Z,100196.38
2023-01-11T01:47:45.462Z,100186.97
2023-01-11T01:50:17.450Z,100183.25
2023-01-11T01:52:47.923Z,100178.09
2023-01-11T01:55:20.867Z,100178.25
2023-01-11T01:57:47.538Z,100182.22
2023-01-11T02:00:14.456Z,100183.56
2023-01-11T02:02:44.433Z,100180.13
2023-01-11T02:05:12.569Z,100188.16
2023-01-11T02:07:41.842Z,100180.75
2023-01-11T02:10:18.699Z,100191.75
2023-01-11T02:12:50.951Z,100177.28
2023-01-11T02:15:20.885Z,100174.75
2023-01-11T02:17:47.319Z,100158.78
2023-01-11T02:20:52.088Z,100168.22
2023-01-11T02:23:59.873Z,100154.69
2023-01-11T02:26:41.344Z,100153.44
2023-01-11T02:29:16.032Z,100156.50
2023-01-11T02:32:05.161Z,100136.59
2023-01-11T02:34:41.862Z,100148.53
2023-01-11T02:37:29.767Z,100142.50
2023-01-11T02:40:07.531Z,100127.63
2023-01-11T02:43:03.887Z,100113.91
2023-01-11T02:45:50.506Z,100119.03
2023-01-11T02:54:59.520Z,100084.50
2023-01-11T02:58:00.289Z,100063.91
2023-01-11T03:00:27.714Z,100080.84
2023-01-11T03:03:13.791Z,100084.50
2023-01-11T03:05:46.644Z,100080.53
2023-01-11T03:08:33.084Z,100083.56
2023-01-11T03:11:08.082Z,100077.75
2023-01-11T03:13:52.958Z,100073.91
2023-01-11T03:16:31.440Z,100076.75
2023-01-11T03:19:26.955Z,100079.44
2023-01-11T03:22:32.294Z,100080.66
2023-01-11T03:25:23.646Z,100070.16
2023-01-11T03:28:02.936Z,100067.72
2023-01-11T03:30:43.060Z,100068.28
2023-01-11T03:33:17.117Z,100081.47
2023-01-11T03:35:51.153Z,100078.88
2023-01-11T03:38:31.587Z,100076.22
2023-01-11T03:41:05.225Z,100073.63
2023-01-11T03:43:35.417Z,100069.25
2023-01-11T03:46:15.282Z,100064.78
2023-01-11T03:48:50.125Z,100063.56
2023-01-11T03:51:22.325Z,100068.41
2023-01-11T03:53:50.824Z,100058.78
2023-01-11T03:56:22.768Z,100053.44
2023-01-11T03:58:49.250Z,100048.91
2023-01-11T04:01:18.807Z,100029.81
2023-01-11T04:03:45.270Z,100049.03
2023-01-11T04:06:15.304Z,100038.13
2023-01-11T04:08:41.724Z,100037.41
2023-01-11T04:11:08.215Z,100036.97
2023-01-11T04:13:34.813Z,100029.53
2023-01-11T04:16:01.364Z,100032.28
2023-01-11T04:18:28.239Z,100020.19
2023-01-11T04:20:59.154Z,100034.34
2023-01-11T04:23:25.664Z,100021.69
2023-01-11T04:25:53.351Z,100012.09
2023-01-11T04:28:19.792Z,100019.63
2023-01-11T04:30:46.208Z,100009.00
2023-01-11T04:33:13.359Z,100005.00
2023-01-11T04:35:40.344Z,100003.59
2023-01-11T04:38:06.725Z,100006.25
2023-01-11T04:40:34.649Z,99994.28
2023-01-11T04:43:02.350Z,99999.81
2023-01-11T04:45:30.177Z,99994.72
2023-01-11T04:47:58.123Z,100001.09
2023-01-11T04:50:29.659Z,100001.66
2023-01-11T04:52:59.086Z,100002.72
2023-01-11T04:55:25.656Z,100007.53
2023-01-11T04:57:52.095Z,100014.00
2023-01-11T05:00:18.776Z,100004.78
2023-01-11T05:02:45.308Z,99995.22
2023-01-11T05:05:12.079Z,99989.88
2023-01-11T05:07:39.202Z,99994.56
2023-01-11T05:10:07.831Z,99995.38
2023-01-11T05:12:34.544Z,99984.94
2023-01-11T05:15:01.123Z,99992.84
2023-01-11T05:17:27.619Z,99989.22
2023-01-11T05:19:54.048Z,99984.91
2023-01-11T05:22:24.945Z,99982.97
2023-01-11T05:24:51.482Z,99975.59
2023-01-11T05:27:18.038Z,99976.56
2023-01-11T05:29:44.768Z,99969.84
2023-01-11T05:32:12.363Z,99960.44
2023-01-11T05:34:39.077Z,99958.72
2023-01-11T05:37:05.554Z,99953.22
2023-01-11T05:39:32.080Z,99953.81
2023-01-11T05:41:58.656Z,99954.91
2023-01-11T05:44:44.016Z,99944.22
2023-01-11T05:47:10.429Z,99958.00
2023-01-11T05:49:36.923Z,99950.75
2023-01-11T05:52:05.575Z,99954.03
2023-01-11T05:54:32.160Z,99955.47
2023-01-11T05:56:58.966Z,99940.78
2023-01-11T05:59:26.766Z,99958.00
2023-01-11T06:01:53.325Z,99955.63
2023-01-11T06:04:21.988Z,99958.50
2023-01-11T06:06:48.560Z,99947.25
2023-01-11T06:09:14.967Z,99947.91
2023-01-11T06:11:41.445Z,99948.09
2023-01-11T06:14:07.877Z,99949.59
2023-01-11T06:16:34.380Z,99956.81
2023-01-11T06:19:00.932Z,99951.72
2023-01-11T06:21:27.513Z,99938.75
2023-01-11T06:23:56.258Z,99951.94
2023-01-11T06:26:23.446Z,99955.53
2023-01-11T06:28:50.979Z,99954.69
2023-01-11T06:31:18.376Z,99960.53
2023-01-11T06:33:45.831Z,99955.34
2023-01-11T06:36:13.689Z,99957.66
2023-01-11T06:38:40.424Z,99944.72
2023-01-11T06:41:08.424Z,99944.59
2023-01-11T06:43:37.433Z,99947.38
2023-01-11T06:46:04.148Z,99958.94
2023-01-11T06:48:30.920Z,99952.44
2023-01-11T06:50:58.434Z,99954.16
2023-01-11T06:53:28.420Z,99955.94
2023-01-11T06:55:57.018Z,99950.75
2023-01-11T06:58:24.605Z,99950.56
2023-01-11T07:00:52.483Z,99947.69
2023-01-11T07:03:20.486Z,99948.38
2023-01-11T07:05:47.297Z,99958.94
2023-01-11T07:08:13.888Z,99957.75
2023-01-11T07:10:40.722Z,99953.63
2023-01-11T07:13:07.987Z,99956.50
2023-01-11T07:15:34.935Z,99962.84
2023-01-11T07:18:01.596Z,99963.06
2023-01-11T07:20:28.698Z,99963.72
2023-01-11T07:22:59.776Z,99973.38
2023-01-11T07:25:27.981Z,99956.34
2023-01-11T07:28:03.219Z,99952.66
2023-01-11T07:30:31.985Z,99960.19
2023-01-11T07:32:59.963Z,99954.22
2023-01-11T07:35:28.969Z,99950.44
2023-01-11T07:37:56.124Z,99960.78
2023-01-11T07:40:22.739Z,99946.84
2023-01-11T07:43:11.505Z,99956.59
2023-01-11T07:45:47.298Z,99956.22
2023-01-11T07:48:15.090Z,99951.50
2023-01-11T07:50:44.849Z,99955.00
2023-01-11T07:53:12.940Z,99963.69
2023-01-11T07:55:40.297Z,99949.16
2023-01-11T07:58:08.597Z,99945.78
2023-01-11T08:00:35.121Z,99950.84
2023-01-11T08:03:02.391Z,99956.06
2023-01-11T08:05:29.607Z,99957.03
2023-01-11T08:07:56.074Z,99953.53
2023-01-11T08:10:22.930Z,99949.47
2023-01-11T08:13:08.316Z,99945.78
2023-01-11T08:15:42.155Z,99950.13
2023-01-11T08:18:10.126Z,99960.84
2023-01-11T08:20:36.645Z,99965.19
2023-01-11T08:23:08.703Z,99949.16
2023-01-11T08:25:35.682Z,99950.88
2023-01-11T08:28:06.094Z,99956.59
2023-01-11T08:30:33.381Z,99952.66
2023-01-11T08:33:03.656Z,99953.94
2023-01-11T08:35:30.973Z,99956.75
2023-01-11T08:37:57.517Z,99962.44
2023-01-11T08:40:25.558Z,99966.72
2023-01-11T08:42:56.829Z,99969.72
2023-01-11T08:45:23.629Z,99967.63
2023-01-11T08:47:51.382Z,99959.31
2023-01-11T08:50:18.697Z,99970.56
2023-01-11T08:52:45.796Z,99968.25
2023-01-11T08:55:12.229Z,99975.22
2023-01-11T08:57:38.906Z,99980.13
2023-01-11T09:00:07.367Z,99977.59
2023-01-11T09:02:33.789Z,99986.44
2023-01-11T09:05:00.239Z,99969.81
2023-01-11T09:07:26.647Z,99970.19
2023-01-11T09:09:53.138Z,99974.22
2023-01-11T09:12:19.604Z,99983.47
2023-01-11T09:14:45.999Z,99989.28
2023-01-11T09:17:12.397Z,99984.69
2023-01-11T09:19:38.872Z,99980.91
2023-01-11T09:22:05.274Z,99984.50
2023-01-11T09:24:31.904Z,99984.84
2023-01-11T09:26:59.937Z,99982.75
2023-01-11T09:29:26.751Z,99987.13
2023-01-11T09:31:53.160Z,99985.59
2023-01-11T09:34:20.913Z,99995.00
2023-01-11T09:36:48.891Z,100006.16
2023-01-11T09:39:18.682Z,100004.31
2023-01-11T09:42:06.025Z,100003.91
2023-01-11T09:44:36.682Z,99995.69
2023-01-11T09:47:19.487Z,99999.47
2023-01-11T09:49:54.404Z,99994.84
2023-01-11T09:52:38.229Z,99993.72
2023-01-11T09:55:05.710Z,99986.56
2023-01-11T09:57:47.551Z,99995.88
2023-01-11T10:00:33.074Z,99998.59
2023-01-11T10:03:14.497Z,99990.31
2023-01-11T10:06:17.423Z,99991.50
2023-01-11T10:18:28.389Z,99983.97
2023-01-11T10:18:39.850Z,99995.03
2023-01-11T10:20:55.296Z,99999.63
2023-01-11T10:23:32.767Z,99996.16
2023-01-11T10:26:04.918Z,99993.28
2023-01-11T10:28:42.916Z,100001.91
2023-01-11T10:31:30.491Z,99993.53
2023-01-11T10:34:30.554Z,99995.16
2023-01-11T10:37:26.637Z,99975.28
2023-01-11T10:40:32.749Z,99963.75
2023-01-11T10:43:12.854Z,99958.50
2023-01-11T10:45:46.842Z,99954.94
2023-01-11T10:48:28.194Z,99964.88
2023-01-11T10:51:05.131Z,99965.84
2023-01-11T10:54:14.060Z,99942.31
2023-01-11T10:57:01.735Z,99979.63
2023-01-11T10:59:39.342Z,99973.22
2023-01-11T11:02:41.133Z,99971.88
2023-01-11T11:05:13.369Z,99973.53
2023-01-11T11:08:14.807Z,99959.78
2023-01-11T11:10:50.607Z,99958.19
2023-01-11T11:13:19.909Z,99957.34
2023-01-11T11:16:04.924Z,99954.03
2023-01-11T11:18:31.564Z,99951.44
2023-01-11T11:21:05.084Z,99952.94
2023-01-11T11:23:32.633Z,99957.91
2023-01-11T11:26:02.915Z,99943.75
2023-01-11T11:28:32.031Z,99934.34
2023-01-11T11:31:03.971Z,99935.19
2023-01-11T11:33:35.920Z,99933.88
2023-01-11T11:36:05.801Z,99942.22
2023-01-11T11:38:54.987Z,99933.69
2023-01-11T11:41:22.422Z,99939.66
2023-01-11T11:43:48.847Z,99943.38
2023-01-11T11:46:19.373Z,99945.44
2023-01-11T11:49:16.716Z,99949.31
2023-01-11T11:51:45.543Z,99950.34
2023-01-11T11:54:25.873Z,99946.16
2023-01-11T11:56:54.514Z,99950.44
2023-01-11T11:59:24.379Z,99942.31
2023-01-11T12:02:05.031Z,99943.31
2023-01-11T12:04:47.028Z,99942.53
2023-01-11T12:07:18.443Z,99953.28
2023-01-11T12:09:49.149Z,99942.03
2023-01-11T12:12:24.411Z,99950.47
2023-01-11T12:15:28.816Z,99960.31
2023-01-11T12:18:15.384Z,99964.84
2023-01-11T12:20:42.362Z,99951.81
2023-01-11T12:23:12.480Z,99950.75
2023-01-11T12:25:51.212Z,99951.31
2023-01-11T12:28:37.575Z,99951.53
2023-01-11T12:31:16.511Z,99950.59
2023-01-11T12:34:01.269Z,99950.66
2023-01-11T12:36:32.468Z,99955.00
2023-01-11T12:39:00.540Z,99957.00
2023-01-11T12:41:56.545Z,99954.03
2023-01-11T12:44:50.397Z,99963.03
2023-01-11T12:47:22.825Z,99957.78
2023-01-11T12:49:56.740Z,99975.59
2023-01-11T12:52:51.832Z,99966.44
2023-01-11T12:55:33.401Z,99963.59
2023-01-11T12:58:07.900Z,99963.03
2023-01-11T13:01:05.454Z,99963.03
2023-01-11T13:03:50.667Z,99971.59
2023-01-11T13:06:32.130Z,99962.66
2023-01-11T13:09:29.383Z,99974.22
2023-01-11T13:12:49.261Z,99976.00
2023-01-11T13:15:45.132Z,99971.31
2023-01-11T13:18:26.916Z,99979.38
2023-01-11T13:21:18.050Z,99985.16
2023-01-11T13:23:49.469Z,99989.00
2023-01-11T13:26:26.527Z,99990.94
2023-01-11T13:29:26.142Z,99996.78
2023-01-11T13:31:54.708Z,100000.00
2023-01-11T13:34:29.718Z,100017.16
2023-01-11T13:37:02.733Z,100018.88
2023-01-11T13:39:41.897Z,100022.13
2023-01-11T13:42:22.036Z,100008.81
2023-01-11T13:45:02.543Z,100013.38
2023-01-11T13:47:42.097Z,100006.97
2023-01-11T13:50:22.853Z,100012.91
2023-01-11T13:53:03.468Z,100012.41
2023-01-11T13:55:56.792Z,100007.28
2023-01-11T13:58:51.001Z,100009.41
2023-01-11T14:01:25.663Z,100026.91
2023-01-11T14:04:08.306Z,100034.25
2023-01-11T14:06:34.657Z,100038.72
2023-01-11T14:09:04.095Z,100030.81
2023-01-11T14:11:48.800Z,100040.72
2023-01-11T14:14:35.428Z,100043.00
2023-01-11T14:17:28.291Z,100044.66
2023-01-11T14:20:11.999Z,100052.34
2023-01-11T14:22:45.465Z,100056.16
2023-01-11T14:25:22.192Z,100063.78
2023-01-11T14:28:03.836Z,100067.22
2023-01-11T14:30:55.311Z,100070.03
2023-01-11T14:33:55.644Z,100079.91
2023-01-11T14:36:37.273Z,100074.25
2023-01-11T14:39:19.356Z,100079.56
2023-01-11T14:42:30.503Z,100076.91
2023-01-11T14:45:16.810Z,100096.56
2023-01-11T14:48:03.991Z,100087.38
2023-01-11T14:51:03.078Z,100084.03
2023-01-11T14:53:35.829Z,100090.84
2023-01-11T14:56:02.335Z,100102.84
2023-01-11T14:58:31.430Z,100113.22
2023-01-11T15:00:57.805Z,100100.84
2023-01-11T15:03:30.231Z,100101.47
2023-01-11T15:06:23.239Z,100106.03
2023-01-11T15:08:52.487Z,100114.88
2023-01-11T15:11:28.636Z,100105.88
2023-01-11T15:13:58.886Z,100126.97
2023-01-11T15:16:46.972Z,100123.25
2023-01-11T15:19:35.243Z,100127.38
2023-01-11T15:22:04.202Z,100143.31
2023-01-11T15:24:38.718Z,100147.25
2023-01-11T15:27:05.660Z,100150.22
2023-01-11T15:29:42.393Z,100150.22
2023-01-11T15:32:25.694Z,100158.78
2023-01-11T15:34:52.305Z,100170.13
2023-01-11T15:37:41.752Z,100170.19
2023-01-11T15:40:16.981Z,100169.09
2023-01-11T15:43:04.213Z,100185.50
2023-01-11T15:46:13.747Z,100204.00
2023-01-11T15:49:03.732Z,100202.03
2023-01-11T15:52:08.983Z,100205.13
2023-01-11T15:55:13.229Z,100210.03
2023-01-11T15:58:02.983Z,100221.41
2023-01-11T16:00:55.355Z,100215.28
2023-01-11T16:03:51.078Z,100224.97
2023-01-11T16:06:47.096Z,100244.75
2023-01-11T16:09:51.365Z,100237.53
2023-01-11T16:12:38.173Z,100254.63
2023-01-11T16:15:33.237Z,100256.59
2023-01-11T16:18:11.961Z,100250.88
2023-01-11T16:20:40.091Z,100252.59
2023-01-11T16:23:10.218Z,100264.69
2023-01-11T16:25:41.551Z,100265.41
2023-01-11T16:28:15.938Z,100253.69
2023-01-11T16:30:43.366Z,100263.25
2023-01-11T16:33:30.602Z,100272.31
2023-01-11T16:36:23.844Z,100267.84
2023-01-11T16:39:09.279Z,100260.59
2023-01-11T16:41:43.724Z,100261.00
2023-01-11T16:44:39.698Z,100273.44
2023-01-11T16:47:08.794Z,100276.66
2023-01-11T16:49:35.301Z,100273.44
2023-01-11T16:52:27.332Z,100276.41
2023-01-11T16:55:00.136Z,100271.94
2023-01-11T16:57:32.600Z,100271.06
2023-01-11T17:00:06.391Z,100273.00
2023-01-11T17:02:40.044Z,100271.88
2023-01-11T17:05:24.747Z,100282.84
2023-01-11T17:07:51.381Z,100275.59
2023-01-11T17:10:22.874Z,100281.94
2023-01-11T17:13:02.207Z,100268.47
2023-01-11T17:15:35.176Z,100274.09
2023-01-11T17:18:03.644Z,100269.63
2023-01-11T17:20:31.507Z,100273.75
2023-01-11T17:22:58.892Z,100279.81
2023-01-11T17:25:43.790Z,100282.56
2023-01-11T17:28:18.075Z,100284.91
2023-01-11T17:30:47.843Z,100282.56
2023-01-11T17:33:33.104Z,100293.16
2023-01-11T17:36:00.213Z,100296.53
2023-01-11T17:38:27.995Z,100295.69
2023-01-11T17:40:58.732Z,100307.13
2023-01-11T17:43:46.549Z,100303.91
2023-01-11T17:46:19.460Z,100305.34
2023-01-11T17:48:54.853Z,100317.22
2023-01-11T17:51:33.289Z,100314.78
2023-01-11T17:54:00.220Z,100317.16
2023-01-11T17:56:32.746Z,100319.50
2023-01-11T17:59:21.322Z,100323.63
2023-01-11T18:02:23.405Z,100324.88
2023-01-11T18:04:58.691Z,100324.50
2023-01-11T18:07:25.876Z,100329.25
2023-01-11T18:10:02.173Z,100322.81
2023-01-11T18:12:33.800Z,100328.66
2023-01-11T18:15:02.728Z,100326.50
2023-01-11T18:17:32.085Z,100314.19
2023-01-11T18:19:59.831Z,100316.91
2023-01-11T18:22:35.138Z,100314.72
2023-01-11T18:25:14.742Z,100321.19
2023-01-11T18:27:44.495Z,100312.47
2023-01-11T18:30:31.168Z,100311.16
2023-01-11T18:33:01.947Z,100312.47
2023-01-11T18:35:29.685Z,100311.13
2023-01-11T18:37:56.347Z,100307.97
2023-01-11T18:40:22.864Z,100314.94
2023-01-11T18:42:51.780Z,100308.06
2023-01-11T18:45:18.679Z,100319.72
2023-01-11T18:47:45.183Z,100317.94
2023-01-11T18:50:12.918Z,100318.53
2023-01-11T18:52:39.660Z,100317.56
2023-01-11T18:55:06.469Z,100325.91
2023-01-11T18:57:32.969Z,100331.94
2023-01-11T18:59:59.402Z,100335.88
2023-01-11T19:02:42.236Z,100329.34
2023-01-11T19:05:14.721Z,100321.63
2023-01-11T19:07:41.154Z,100330.16
2023-01-11T19:10:08.172Z,100336.50
2023-01-11T19:12:34.881Z,100338.56
2023-01-11T19:15:01.302Z,100357.31
2023-01-11T19:17:28.479Z,100344.16
2023-01-11T19:19:54.934Z,100345.00
2023-01-11T19:22:24.520Z,100347.00
2023-01-11T19:24:53.139Z,100344.66
2023-01-11T19:27:19.719Z,100341.44
2023-01-11T19:29:46.202Z,100343.34
2023-01-11T19:32:12.642Z,100346.16
2023-01-11T19:34:39.902Z,100341.03
2023-01-11T19:37:06.525Z,100340.84
2023-01-11T19:39:33.075Z,100335.56
2023-01-11T19:42:03.035Z,100331.09
2023-01-11T19:44:38.918Z,100334.59
2023-01-11T19:47:11.538Z,100335.75
2023-01-11T19:49:39.233Z,100335.75
2023-01-11T19:52:12.160Z,100327.91
2023-01-11T19:54:43.853Z,100327.84
2023-01-11T19:57:12.104Z,100323.31
2023-01-11T19:59:38.612Z,100317.97
2023-01-11T20:02:05.431Z,100320.22
2023-01-11T20:04:32.569Z,100322.47
2023-01-11T20:06:59.242Z,100319.66
2023-01-11T20:09:25.682Z,100312.19
2023-01-11T20:11:53.269Z,100310.84
2023-01-11T20:14:20.269Z,100303.66
2023-01-11T20:16:46.865Z,100315.69
2023-01-11T20:19:13.394Z,100307.56
2023-01-11T20:21:39.957Z,100299.13
2023-01-11T20:24:06.728Z,100297.50
2023-01-11T20:26:34.154Z,100306.03
2023-01-11T20:29:01.792Z,100302.53
2023-01-11T20:31:32.946Z,100296.06
2023-01-11T20:34:01.228Z,100311.63
2023-01-11T20:36:28.619Z,100312.34
2023-01-11T20:38:56.228Z,100325.66
2023-01-11T20:41:44.061Z,100310.63
2023-01-11T20:44:11.343Z,100304.03
2023-01-11T20:46:38.592Z,100300.97
2023-01-11T20:49:06.359Z,100293.06
2023-01-11T20:51:32.840Z,100296.22
2023-01-11T20:53:59.332Z,100291.25
2023-01-11T20:56:25.857Z,100279.31
2023-01-11T20:58:52.386Z,100284.78
2023-01-11T21:01:26.768Z,100272.59
2023-01-11T21:03:54.871Z,100266.56
2023-01-11T21:06:21.320Z,100274.66
2023-01-11T21:08:47.769Z,100258.41
2023-01-11T21:11:16.112Z,100259.25
2023-01-11T21:13:42.697Z,100262.53
2023-01-11T21:16:12.327Z,100251.53
2023-01-11T21:18:43.322Z,100246.00
2023-01-11T21:21:14.098Z,100250.03
2023-01-11T21:23:40.821Z,100239.16
2023-01-11T21:26:26.608Z,100245.84
2023-01-11T21:28:55.705Z,100248.25
2023-01-11T21:31:22.684Z,100251.53
2023-01-11T21:33:49.978Z,100263.56
2023-01-11T21:36:21.765Z,100254.75
2023-01-11T21:38:48.646Z,100267.41
2023-01-11T21:41:43.451Z,100252.06
2023-01-11T21:44:11.736Z,100253.03
2023-01-11T21:46:38.460Z,100262.38
2023-01-11T21:49:05.282Z,100250.75
2023-01-11T21:51:31.871Z,100245.09
2023-01-11T21:53:59.417Z,100241.59
2023-01-11T21:56:26.148Z,100238.84
2023-01-11T21:58:52.684Z,100237.97
2023-01-11T22:01:22.978Z,100243.31
2023-01-11T22:03:50.175Z,100233.84
2023-01-11T22:06:17.434Z,100238.94
2023-01-11T22:08:45.039Z,100229.56
2023-01-11T22:11:13.089Z,100236.19
2023-01-11T22:13:39.587Z,100223.47
2023-01-11T22:16:08.792Z,100234.31
2023-01-11T22:18:36.000Z,100228.97
2023-01-11T22:21:17.213Z,100232.81
2023-01-11T22:23:45.413Z,100222.47
2023-01-11T22:26:16.990Z,100214.19
2023-01-11T22:29:03.021Z,100233.56
2023-01-11T22:31:30.835Z,100219.16
2023-01-11T22:33:58.410Z,100209.34
2023-01-11T22:36:26.139Z,100219.81
2023-01-11T22:38:52.989Z,100215.59
2023-01-11T22:41:20.935Z,100225.22
2023-01-11T22:43:48.004Z,100216.13
2023-01-11T22:46:16.726Z,100210.19
2023-01-11T22:48:43.828Z,100220.78
2023-01-11T22:51:11.660Z,100207.50
2023-01-11T22:53:39.287Z,100200.22
2023-01-11T22:56:06.683Z,100202.91
2023-01-11T22:58:34.905Z,100193.53
2023-01-11T23:01:18.413Z,100204.97
2023-01-11T23:03:45.458Z,100206.69
2023-01-11T23:06:13.039Z,100201.59
2023-01-11T23:08:41.765Z,100205.16
2023-01-11T23:11:11.460Z,100203.22
2023-01-11T23:13:53.103Z,100206.56
2023-01-11T23:16:19.748Z,100206.88
2023-01-11T23:18:46.271Z,100200.44
2023-01-11T23:21:12.749Z,100194.03
2023-01-11T23:23:39.153Z,100197.25
2023-01-11T23:26:07.052Z,100191.06
2023-01-11T23:28:34.408Z,100184.47
2023-01-11T23:31:15.474Z,100190.81
2023-01-11T23:33:43.137Z,100182.28
2023-01-11T23:36:09.653Z,100169.31
2023-01-11T23:38:36.127Z,100166.00
2023-01-11T23:41:29.426Z,100164.66
2023-01-11T23:43:56.272Z,100163.06
2023-01-11T23:46:42.086Z,100145.56
2023-01-11T23:49:09.783Z,100150.13
2023-01-11T23:51:37.114Z,100142.16
2023-01-11T23:54:06.484Z,100144.19
2023-01-11T23:56:34.139Z,100137.81
2023-01-11T23:59:01.307Z,100142.44
